createdAt,value
2022-09-06T00:00:58.959Z,88.23
2022-09-06T00:03:28.050Z,88.93
2022-09-06T00:05:55.068Z,89.37
2022-09-06T00:08:21.677Z,89.39
2022-09-06T00:10:48.188Z,88.69
2022-09-06T00:13:14.729Z,87.08
2022-09-06T00:15:41.355Z,86.85
2022-09-06T00:18:08.586Z,86.87
2022-09-06T00:20:37.413Z,86.63
2022-09-06T00:23:05.688Z,86.20
2022-09-06T00:25:33.213Z,85.97
2022-09-06T00:28:02.644Z,85.32
2022-09-06T00:30:30.344Z,85.25
2022-09-06T00:32:57.477Z,85.16
2022-09-06T00:35:25.550Z,84.72
2022-09-06T00:37:55.971Z,84.50
2022-09-06T00:40:22.436Z,84.01
2022-09-06T00:42:49.026Z,84.12
2022-09-06T00:45:15.567Z,83.46
2022-09-06T00:47:43.394Z,83.21
2022-09-06T00:50:13.646Z,83.36
2022-09-06T00:52:43.005Z,83.05
2022-09-06T00:55:09.793Z,82.59
2022-09-06T00:57:36.609Z,82.03
2022-09-06T01:00:05.988Z,82.99
2022-09-06T01:02:32.621Z,83.48
2022-09-06T01:04:59.862Z,83.39
2022-09-06T01:07:50.057Z,83.59
2022-09-06T01:10:39.814Z,83.93
2022-09-06T01:13:21.407Z,84.13
2022-09-06T01:19:25.780Z,83.57
2022-09-06T01:22:22.681Z,83.58
2022-09-06T01:25:15.320Z,83.04
2022-09-06T01:27:49.062Z,83.55
2022-09-06T01:30:18.827Z,83.23
2022-09-06T01:32:48.008Z,83.21
2022-09-06T01:35:27.316Z,83.10
2022-09-06T01:37:55.474Z,82.78
2022-09-06T01:40:21.956Z,83.77
2022-09-06T01:42:50.060Z,83.79
2022-09-06T01:46:11.522Z,83.56
2022-09-06T01:49:18.216Z,83.53
2022-09-06T01:51:57.810Z,82.98
2022-09-06T01:55:11.817Z,81.71
2022-09-06T01:57:48.997Z,76.79
2022-09-06T02:00:18.653Z,74.20
2022-09-06T02:03:11.878Z,72.16
2022-09-06T02:05:48.617Z,71.33
2022-09-06T02:08:26.865Z,71.83
2022-09-06T02:11:02.392Z,72.42
2022-09-06T02:13:37.302Z,73.26
2022-09-06T02:16:06.725Z,76.76
2022-09-06T02:18:41.880Z,80.28
2022-09-06T02:21:12.658Z,82.24
2022-09-06T02:23:41.473Z,84.87
2022-09-06T02:26:36.732Z,86.02
2022-09-06T02:29:03.538Z,89.67
2022-09-06T02:31:35.697Z,91.56
2022-09-06T02:34:03.409Z,93.69
2022-09-06T02:36:31.938Z,96.12
2022-09-06T02:39:02.056Z,98.10
2022-09-06T02:41:30.949Z,99.09
2022-09-06T02:43:57.480Z,100.00
2022-09-06T02:46:24.467Z,100.00
2022-09-06T02:48:51.747Z,100.00
2022-09-06T02:51:18.608Z,100.00
2022-09-06T02:53:45.101Z,100.00
2022-09-06T02:56:11.701Z,97.86
2022-09-06T02:58:38.374Z,98.56
2022-09-06T03:01:05.066Z,100.00
2022-09-06T03:03:31.593Z,100.00
2022-09-06T03:05:58.356Z,100.00
2022-09-06T03:08:26.281Z,100.00
2022-09-06T03:10:56.039Z,100.00
2022-09-06T03:13:24.242Z,100.00
2022-09-06T03:15:52.484Z,100.00
2022-09-06T03:18:19.032Z,100.00
2022-09-06T03:20:45.918Z,100.00
2022-09-06T03:23:12.410Z,100.00
2022-09-06T03:25:38.877Z,100.00
2022-09-06T03:28:05.356Z,100.00
2022-09-06T03:30:31.851Z,100.00
2022-09-06T03:33:02.641Z,100.00
2022-09-06T03:35:29.569Z,100.00
2022-09-06T03:37:56.093Z,100.00
2022-09-06T03:40:22.667Z,100.00
2022-09-06T03:42:49.176Z,100.00
2022-09-06T03:45:15.791Z,100.00
2022-09-06T03:47:42.269Z,100.00
2022-09-06T03:50:09.143Z,100.00
2022-09-06T03:52:35.623Z,100.00
2022-09-06T03:55:03.345Z,100.00
2022-09-06T03:57:29.967Z,100.00
2022-09-06T03:59:56.412Z,100.00
2022-09-06T04:02:23.121Z,100.00
2022-09-06T04:04:49.681Z,100.00
2022-09-06T04:07:16.135Z,100.00
2022-09-06T04:09:42.670Z,100.00
2022-09-06T04:12:09.121Z,100.00
2022-09-06T04:14:35.603Z,100.00
2022-09-06T04:17:02.104Z,100.00
2022-09-06T04:19:28.603Z,100.00
2022-09-06T04:21:55.363Z,100.00
2022-09-06T04:24:21.901Z,100.00
2022-09-06T04:26:48.404Z,100.00
2022-09-06T04:29:16.204Z,100.00
2022-09-06T04:31:42.710Z,100.00
2022-09-06T04:34:09.188Z,100.00
2022-09-06T04:36:36.130Z,100.00
2022-09-06T04:39:02.804Z,100.00
2022-09-06T04:41:29.345Z,100.00
2022-09-06T04:43:55.832Z,100.00
2022-09-06T04:46:25.344Z,100.00
2022-09-06T04:48:54.179Z,100.00
2022-09-06T04:51:21.648Z,100.00
2022-09-06T04:53:48.678Z,100.00
2022-09-06T04:56:18.176Z,100.00
2022-09-06T04:58:46.228Z,100.00
2022-09-06T05:01:13.500Z,100.00
2022-09-06T05:03:40.108Z,100.00
2022-09-06T05:06:13.862Z,100.00
2022-09-06T05:08:41.748Z,100.00
2022-09-06T05:11:08.902Z,100.00
2022-09-06T05:13:35.550Z,100.00
2022-09-06T05:16:06.340Z,100.00
2022-09-06T05:18:34.039Z,100.00
2022-09-06T05:21:01.057Z,100.00
2022-09-06T05:23:28.177Z,100.00
2022-09-06T05:25:54.782Z,100.00
2022-09-06T05:28:21.362Z,100.00
2022-09-06T05:30:47.976Z,100.00
2022-09-06T05:33:20.449Z,100.00
2022-09-06T05:35:48.711Z,100.00
2022-09-06T05:38:15.269Z,100.00
2022-09-06T05:40:41.789Z,100.00
2022-09-06T05:43:08.298Z,100.00
2022-09-06T05:45:34.915Z,100.00
2022-09-06T05:48:01.565Z,100.00
2022-09-06T05:50:28.077Z,100.00
2022-09-06T05:52:54.605Z,100.00
2022-09-06T05:55:21.085Z,100.00
2022-09-06T05:57:47.605Z,100.00
2022-09-06T06:00:14.513Z,100.00
2022-09-06T06:02:41.115Z,100.00
2022-09-06T06:05:08.193Z,100.00
2022-09-06T06:07:34.808Z,100.00
2022-09-06T06:10:01.267Z,100.00
2022-09-06T06:12:27.749Z,100.00
2022-09-06T06:14:54.226Z,100.00
2022-09-06T06:17:20.849Z,100.00
2022-09-06T06:19:47.509Z,100.00
2022-09-06T06:22:14.007Z,100.00
2022-09-06T06:24:40.556Z,100.00
2022-09-06T06:27:07.072Z,100.00
2022-09-06T06:29:33.692Z,100.00
2022-09-06T06:32:00.354Z,100.00
2022-09-06T06:34:26.900Z,100.00
2022-09-06T06:36:53.357Z,100.00
2022-09-06T06:39:19.892Z,100.00
2022-09-06T06:41:46.397Z,99.80
2022-09-06T06:44:32.179Z,99.06
2022-09-06T06:47:01.841Z,100.00
2022-09-06T06:49:29.175Z,97.67
2022-09-06T06:51:55.690Z,95.47
2022-09-06T06:54:22.213Z,95.21
2022-09-06T06:56:48.685Z,93.01
2022-09-06T06:59:15.187Z,92.34
2022-09-06T07:01:41.817Z,94.80
2022-09-06T07:04:10.384Z,94.15
2022-09-06T07:12:23.688Z,91.00
2022-09-06T07:14:50.276Z,90.33
2022-09-06T07:17:16.724Z,88.30
2022-09-06T07:22:29.645Z,86.24
2022-09-06T07:24:56.224Z,86.25
2022-09-06T07:30:10.316Z,87.09
2022-09-06T07:32:36.880Z,84.87
2022-09-06T07:35:03.618Z,84.93
2022-09-06T07:37:30.109Z,83.90
2022-09-06T07:39:56.614Z,83.47
2022-09-06T07:42:23.205Z,83.07
2022-09-06T07:44:49.734Z,79.97
2022-09-06T07:53:07.176Z,77.67
2022-09-06T07:55:34.928Z,78.14
2022-09-06T07:58:01.494Z,77.52
2022-09-06T08:00:27.968Z,77.07
2022-09-06T08:02:54.432Z,77.33
2022-09-06T08:10:53.903Z,73.34
2022-09-06T08:13:20.365Z,71.01
2022-09-06T08:15:46.865Z,70.74
2022-09-06T08:18:13.355Z,69.48
2022-09-06T08:20:39.845Z,68.46
2022-09-06T08:23:10.344Z,67.96
2022-09-06T08:25:37.065Z,67.31
2022-09-06T08:28:03.604Z,67.71
2022-09-06T08:30:30.580Z,68.44
2022-09-06T08:32:57.109Z,67.27
2022-09-06T08:35:23.677Z,64.14
2022-09-06T08:37:50.174Z,64.06
2022-09-06T08:40:23.885Z,63.10
2022-09-06T08:42:51.433Z,61.13
2022-09-06T08:45:19.491Z,61.07
2022-09-06T08:47:45.989Z,59.78
2022-09-06T08:50:12.552Z,59.22
2022-09-06T08:53:15.624Z,59.07
2022-09-06T08:55:39.012Z,60.01
2022-09-06T08:58:17.771Z,59.77
2022-09-06T09:00:58.668Z,59.61
2022-09-06T09:03:33.177Z,59.48
2022-09-06T09:06:01.534Z,58.20
2022-09-06T09:08:52.920Z,59.41
2022-09-06T09:11:23.863Z,58.51
2022-09-06T09:14:01.707Z,59.17
2022-09-06T09:16:28.468Z,58.45
2022-09-06T09:19:01.811Z,59.13
2022-09-06T09:21:31.586Z,58.74
2022-09-06T09:24:03.058Z,58.73
2022-09-06T09:26:36.839Z,58.33
2022-09-06T09:29:05.822Z,58.87
2022-09-06T09:31:38.916Z,59.33
2022-09-06T09:34:10.165Z,59.68
2022-09-06T09:36:36.970Z,59.29
2022-09-06T09:39:10.368Z,60.16
2022-09-06T09:41:40.273Z,59.14
2022-09-06T09:44:18.878Z,57.85
2022-09-06T09:46:45.574Z,58.90
2022-09-06T09:49:24.154Z,59.09
2022-09-06T09:52:11.425Z,58.91
2022-09-06T09:54:41.001Z,58.03
2022-09-06T09:57:14.713Z,57.42
2022-09-06T09:59:51.675Z,58.39
2022-09-06T10:02:30.563Z,58.73
2022-09-06T10:05:09.801Z,57.76
2022-09-06T10:07:43.593Z,57.01
2022-09-06T10:10:20.329Z,57.41
2022-09-06T10:12:46.884Z,56.36
2022-09-06T10:15:39.629Z,56.37
2022-09-06T10:18:06.541Z,54.75
2022-09-06T10:20:44.375Z,54.99
2022-09-06T10:26:32.274Z,54.56
2022-09-06T10:29:04.714Z,53.58
2022-09-06T10:32:06.637Z,54.01
2022-09-06T10:34:57.429Z,53.16
2022-09-06T10:37:48.413Z,52.32
2022-09-06T10:40:41.923Z,52.78
2022-09-06T10:43:17.645Z,52.88
2022-09-06T10:46:09.295Z,51.01
2022-09-06T10:48:40.693Z,53.09
2022-09-06T10:51:28.684Z,53.64
2022-09-06T10:54:01.741Z,53.08
2022-09-06T10:56:57.277Z,53.03
2022-09-06T10:59:39.188Z,52.68
2022-09-06T11:02:05.802Z,52.23
2022-09-06T11:07:30.208Z,52.10
2022-09-06T11:10:06.060Z,51.13
2022-09-06T11:12:48.196Z,51.67
2022-09-06T11:15:17.970Z,53.40
2022-09-06T11:17:58.937Z,53.94
2022-09-06T11:20:32.171Z,54.00
2022-09-06T11:23:30.033Z,52.86
2022-09-06T11:26:03.731Z,53.72
2022-09-06T11:28:45.741Z,53.35
2022-09-06T11:34:19.618Z,51.33
2022-09-06T11:36:49.588Z,51.60
2022-09-06T11:42:41.776Z,54.43
2022-09-06T11:45:08.220Z,54.89
2022-09-06T11:47:43.277Z,57.07
2022-09-06T11:50:21.939Z,57.79
2022-09-06T11:53:06.980Z,58.06
2022-09-06T11:55:43.562Z,56.98
2022-09-06T11:58:23.013Z,57.95
2022-09-06T12:01:25.301Z,58.25
2022-09-06T12:04:08.782Z,58.13
2022-09-06T12:07:04.123Z,59.70
2022-09-06T12:09:36.333Z,59.43
2022-09-06T12:12:03.596Z,59.52
2022-09-06T12:14:31.554Z,60.24
2022-09-06T12:17:00.746Z,61.07
2022-09-06T12:19:48.590Z,60.40
2022-09-06T12:22:27.337Z,60.38
2022-09-06T12:25:03.923Z,60.47
2022-09-06T12:27:34.994Z,60.82
2022-09-06T12:30:12.063Z,64.33
2022-09-06T12:32:45.166Z,65.76
2022-09-06T12:38:06.403Z,71.37
2022-09-06T12:40:40.911Z,68.75
2022-09-06T12:43:11.109Z,62.95
2022-09-06T12:45:43.768Z,60.91
2022-09-06T12:48:16.044Z,60.42
2022-09-06T12:50:42.821Z,60.18
2022-09-06T12:53:25.419Z,58.54
2022-09-06T12:56:14.862Z,57.26
2022-09-06T12:58:41.977Z,55.54
2022-09-06T13:01:18.250Z,54.86
2022-09-06T13:04:02.687Z,54.24
2022-09-06T13:06:33.628Z,56.65
2022-09-06T13:09:01.356Z,56.92
2022-09-06T13:11:43.816Z,58.11
2022-09-06T13:14:14.540Z,58.21
2022-09-06T13:16:47.512Z,58.69
2022-09-06T13:19:30.501Z,61.71
2022-09-06T13:21:58.413Z,63.83
2022-09-06T13:24:46.514Z,65.14
2022-09-06T13:27:23.809Z,69.16
2022-09-06T13:30:10.782Z,69.88
2022-09-06T13:32:46.697Z,67.73
2022-09-06T13:35:26.750Z,65.47
2022-09-06T13:37:53.299Z,67.56
2022-09-06T13:41:09.681Z,65.82
2022-09-06T13:43:33.360Z,68.37
2022-09-06T13:46:08.894Z,72.02
2022-09-06T13:48:35.892Z,76.91
2022-09-06T13:51:07.197Z,77.08
2022-09-06T13:53:34.389Z,72.71
2022-09-06T13:56:00.953Z,72.25
2022-09-06T13:58:27.830Z,73.57
2022-09-06T14:00:54.555Z,75.74
2022-09-06T14:03:25.625Z,72.65
2022-09-06T14:05:52.092Z,70.42
2022-09-06T14:08:18.703Z,71.53
2022-09-06T14:10:47.801Z,77.11
2022-09-06T14:13:15.896Z,76.46
2022-09-06T14:15:42.720Z,80.25
2022-09-06T14:18:13.813Z,82.28
2022-09-06T14:20:41.416Z,83.69
2022-09-06T14:23:08.985Z,80.66
2022-09-06T14:25:36.950Z,84.84
2022-09-06T14:28:04.424Z,88.99
2022-09-06T14:30:31.615Z,90.50
2022-09-06T14:32:58.278Z,93.67
2022-09-06T14:35:24.751Z,94.77
2022-09-06T14:37:51.499Z,93.18
2022-09-06T14:40:18.049Z,97.57
2022-09-06T14:42:47.596Z,96.95
2022-09-06T14:45:17.383Z,96.48
2022-09-06T14:47:43.957Z,96.34
2022-09-06T14:50:10.558Z,96.17
2022-09-06T14:52:37.499Z,96.92
2022-09-06T14:55:04.628Z,97.27
2022-09-06T14:57:31.191Z,97.29
2022-09-06T14:59:58.150Z,97.57
2022-09-06T15:02:26.214Z,96.75
2022-09-06T15:04:53.041Z,94.16
2022-09-06T15:07:19.723Z,96.95
2022-09-06T15:09:46.233Z,97.69
2022-09-06T15:12:12.907Z,93.91
2022-09-06T15:14:40.998Z,94.86
2022-09-06T15:17:08.910Z,90.47
2022-09-06T15:19:37.409Z,90.04
2022-09-06T15:22:05.268Z,82.70
2022-09-06T15:24:32.776Z,75.35
2022-09-06T15:26:59.856Z,74.34
2022-09-06T15:29:29.752Z,77.81
2022-09-06T15:31:57.113Z,78.80
2022-09-06T15:34:25.520Z,75.14
2022-09-06T15:36:53.209Z,76.73
2022-09-06T15:39:20.125Z,79.44
2022-09-06T15:41:46.666Z,82.87
2022-09-06T15:44:15.977Z,82.12
2022-09-06T15:46:49.987Z,85.39
2022-09-06T15:49:27.485Z,88.23
2022-09-06T15:51:55.383Z,86.23
2022-09-06T15:54:42.119Z,87.17
2022-09-06T15:57:09.191Z,86.36
2022-09-06T15:59:35.767Z,90.47
2022-09-06T16:02:03.240Z,92.20
2022-09-06T16:04:29.785Z,93.00
2022-09-06T16:06:56.725Z,94.34
2022-09-06T16:09:23.376Z,97.93
2022-09-06T16:11:50.065Z,97.03
2022-09-06T16:14:16.720Z,96.80
2022-09-06T16:16:43.743Z,95.94
2022-09-06T16:19:12.199Z,96.08
2022-09-06T16:21:40.729Z,95.11
2022-09-06T16:24:09.938Z,93.70
2022-09-06T16:26:39.042Z,93.92
2022-09-06T16:29:08.031Z,94.81
2022-09-06T16:31:39.733Z,95.91
2022-09-06T16:34:06.616Z,95.08
2022-09-06T16:36:33.176Z,94.05
2022-09-06T16:39:00.051Z,93.75
2022-09-06T16:41:48.090Z,91.79
2022-09-06T16:44:17.700Z,90.55
2022-09-06T16:46:46.673Z,89.99
2022-09-06T16:49:13.674Z,89.71
2022-09-06T16:51:40.197Z,88.87
2022-09-06T16:54:06.800Z,89.15
2022-09-06T16:56:35.729Z,87.55
2022-09-06T16:59:05.157Z,88.32
2022-09-06T17:01:32.409Z,89.38
2022-09-06T17:04:03.808Z,90.18
2022-09-06T17:06:31.026Z,92.07
2022-09-06T17:09:00.633Z,91.26
2022-09-06T17:11:28.680Z,90.23
2022-09-06T17:13:56.872Z,92.51
2022-09-06T17:16:42.734Z,93.62
2022-09-06T17:19:09.935Z,92.54
2022-09-06T17:21:37.353Z,89.50
2022-09-06T17:24:04.579Z,90.01
2022-09-06T17:26:33.152Z,91.88
2022-09-06T17:28:59.982Z,94.77
2022-09-06T17:31:27.077Z,94.92
2022-09-06T17:33:53.977Z,96.25
2022-09-06T17:36:23.869Z,96.73
2022-09-06T17:38:53.485Z,95.06
2022-09-06T17:41:20.247Z,96.68
2022-09-06T17:43:47.477Z,100.00
2022-09-06T17:46:14.230Z,100.00
2022-09-06T17:48:41.053Z,100.00
2022-09-06T17:51:08.808Z,100.00
2022-09-06T17:53:36.530Z,100.00
2022-09-06T17:56:08.916Z,100.00
2022-09-06T17:58:36.601Z,100.00
2022-09-06T18:01:04.735Z,100.00
2022-09-06T18:03:32.124Z,100.00
2022-09-06T18:06:25.415Z,100.00
2022-09-06T18:08:54.992Z,100.00
2022-09-06T18:11:27.364Z,100.00
2022-09-06T18:13:58.694Z,100.00
2022-09-06T18:16:26.516Z,100.00
2022-09-06T18:18:55.925Z,100.00
2022-09-06T18:21:23.781Z,100.00
2022-09-06T18:23:51.056Z,100.00
2022-09-06T18:26:18.169Z,100.00
2022-09-06T18:28:44.847Z,100.00
2022-09-06T18:31:18.115Z,100.00
2022-09-06T18:33:44.997Z,100.00
2022-09-06T18:36:12.872Z,100.00
2022-09-06T18:38:42.613Z,100.00
2022-09-06T18:41:30.575Z,100.00
2022-09-06T18:44:02.407Z,100.00
2022-09-06T18:46:30.933Z,100.00
2022-09-06T18:48:57.473Z,100.00
2022-09-06T18:51:24.477Z,100.00
2022-09-06T18:53:52.706Z,100.00
2022-09-06T18:56:20.022Z,100.00
2022-09-06T18:58:46.765Z,100.00
2022-09-06T19:01:15.769Z,100.00
2022-09-06T19:03:43.286Z,100.00
2022-09-06T19:06:16.274Z,100.00
2022-09-06T19:08:43.528Z,100.00
2022-09-06T19:11:12.257Z,100.00
2022-09-06T19:13:41.716Z,100.00
2022-09-06T19:16:10.357Z,100.00
2022-09-06T19:18:37.229Z,100.00
2022-09-06T19:21:09.358Z,100.00
2022-09-06T19:23:38.441Z,100.00
2022-09-06T19:26:09.025Z,100.00
2022-09-06T19:28:37.363Z,100.00
2022-09-06T19:31:15.800Z,100.00
2022-09-06T19:33:43.796Z,100.00
2022-09-06T19:36:12.185Z,100.00
2022-09-06T19:39:01.951Z,100.00
2022-09-06T19:41:28.262Z,100.00
2022-09-06T19:43:56.142Z,100.00
2022-09-06T19:46:23.297Z,100.00
2022-09-06T19:48:51.742Z,100.00
2022-09-06T19:51:19.445Z,100.00
2022-09-06T19:53:52.947Z,100.00
2022-09-06T19:56:26.004Z,100.00
2022-09-06T19:58:55.265Z,100.00
2022-09-06T20:01:23.177Z,100.00
2022-09-06T20:03:50.042Z,100.00
2022-09-06T20:06:16.690Z,100.00
2022-09-06T20:08:43.277Z,100.00
2022-09-06T20:11:12.533Z,100.00
2022-09-06T20:13:39.574Z,100.00
2022-09-06T20:16:08.076Z,100.00
2022-09-06T20:18:35.494Z,100.00
2022-09-06T20:21:02.529Z,100.00
2022-09-06T20:23:30.743Z,100.00
2022-09-06T20:25:59.535Z,100.00
2022-09-06T20:28:27.034Z,100.00
2022-09-06T20:30:53.882Z,100.00
2022-09-06T20:33:20.389Z,100.00
2022-09-06T20:35:57.801Z,100.00
2022-09-06T20:38:25.300Z,100.00
2022-09-06T20:40:59.753Z,100.00
2022-09-06T20:43:26.232Z,100.00
2022-09-06T20:45:52.948Z,100.00
2022-09-06T20:48:19.556Z,100.00
2022-09-06T20:50:46.604Z,100.00
2022-09-06T20:53:13.080Z,100.00
2022-09-06T20:55:39.617Z,100.00
2022-09-06T20:58:06.109Z,100.00
2022-09-06T21:00:33.164Z,100.00
2022-09-06T21:02:59.683Z,100.00
2022-09-06T21:05:26.259Z,100.00
2022-09-06T21:07:52.729Z,100.00
2022-09-06T21:10:19.261Z,100.00
2022-09-06T21:12:46.076Z,100.00
2022-09-06T21:15:12.585Z,100.00
2022-09-06T21:17:39.122Z,100.00
2022-09-06T21:20:06.585Z,99.86
2022-09-06T21:22:33.113Z,100.00
2022-09-06T21:24:59.580Z,100.00
2022-09-06T21:27:26.074Z,100.00
2022-09-06T21:29:52.559Z,100.00
2022-09-06T21:32:19.156Z,100.00
2022-09-06T21:34:45.622Z,100.00
2022-09-06T21:37:12.122Z,100.00
2022-09-06T21:39:39.159Z,100.00
2022-09-06T21:42:05.973Z,100.00
2022-09-06T21:44:32.448Z,100.00
2022-09-06T21:46:59.060Z,100.00
2022-09-06T21:49:25.687Z,100.00
2022-09-06T21:51:52.190Z,100.00
2022-09-06T21:54:18.716Z,100.00
2022-09-06T21:56:46.442Z,100.00
2022-09-06T21:59:12.949Z,99.72
2022-09-06T22:01:40.536Z,97.23
2022-09-06T22:04:07.731Z,95.99
2022-09-06T22:06:35.565Z,95.68
2022-09-06T22:09:11.067Z,94.75
2022-09-06T22:11:39.521Z,94.58
2022-09-06T22:14:07.984Z,95.05
2022-09-06T22:16:36.975Z,95.42
2022-09-06T22:19:05.627Z,96.26
2022-09-06T22:21:33.362Z,96.67
2022-09-06T22:24:02.601Z,97.01
2022-09-06T22:26:31.652Z,96.15
2022-09-06T22:29:03.978Z,96.49
2022-09-06T22:31:32.756Z,96.65
2022-09-06T22:34:00.088Z,96.53
2022-09-06T22:36:27.124Z,96.34
2022-09-06T22:38:57.187Z,97.04
2022-09-06T22:41:25.745Z,97.01
2022-09-06T22:43:52.318Z,96.12
2022-09-06T22:46:19.045Z,96.11
2022-09-06T22:48:45.599Z,95.82
2022-09-06T22:51:12.161Z,95.15
2022-09-06T22:53:39.203Z,93.29
2022-09-06T22:56:05.818Z,93.04
2022-09-06T22:58:33.257Z,92.95
2022-09-06T23:01:07.029Z,91.64
2022-09-06T23:03:33.752Z,91.88
2022-09-06T23:06:00.730Z,90.23
2022-09-06T23:08:27.227Z,89.53
2022-09-06T23:10:53.716Z,88.86
2022-09-06T23:13:20.236Z,88.33
2022-09-06T23:15:47.552Z,87.17
2022-09-06T23:18:14.580Z,87.00
2022-09-06T23:20:41.670Z,85.91
2022-09-06T23:23:08.582Z,86.20
2022-09-06T23:25:39.018Z,86.14
2022-09-06T23:28:06.316Z,86.89
2022-09-06T23:30:36.540Z,86.35
2022-09-06T23:33:03.048Z,86.17
2022-09-06T23:35:29.539Z,85.93
2022-09-06T23:37:56.171Z,86.59
2022-09-06T23:40:22.698Z,86.68
2022-09-06T23:42:49.222Z,87.24
2022-09-06T23:45:15.900Z,88.24
2022-09-06T23:47:42.466Z,90.78
2022-09-06T23:50:09.368Z,90.54
2022-09-06T23:52:35.933Z,91.55
2022-09-06T23:55:02.980Z,94.31
2022-09-06T23:57:29.740Z,95.40
2022-09-06T23:59:56.294Z,95.26
